createdAt,value
2018-03-31T00:02:07.350Z,3.40
2018-03-31T00:04:34.329Z,3.03
2018-03-31T00:07:01.606Z,3.33
2018-03-31T00:09:28.562Z,4.40
2018-03-31T00:11:56.605Z,3.60
2018-03-31T00:14:23.676Z,3.70
2018-03-31T00:16:50.656Z,3.63
2018-03-31T00:19:17.645Z,4.30
2018-03-31T00:21:45.512Z,4.53
2018-03-31T00:24:12.558Z,4.80
2018-03-31T00:26:39.526Z,5.03
2018-03-31T00:29:07.490Z,5.23
2018-03-31T00:31:34.435Z,4.18
2018-03-31T00:34:01.741Z,5.70
2018-03-31T00:36:28.717Z,4.87
2018-03-31T00:38:55.710Z,5.00
2018-03-31T00:41:23.404Z,5.83
2018-03-31T00:43:50.385Z,4.90
2018-03-31T00:46:17.357Z,5.63
2018-03-31T00:48:44.320Z,5.75
2018-03-31T00:51:11.457Z,5.82
2018-03-31T00:53:38.405Z,5.70
2018-03-31T00:56:06.838Z,6.30
2018-03-31T00:58:33.826Z,6.43
2018-03-31T01:01:01.021Z,5.57
2018-03-31T01:03:28.180Z,5.80
2018-03-31T01:05:55.236Z,5.40
2018-03-31T01:08:22.200Z,5.13
2018-03-31T01:10:50.423Z,6.53
2018-03-31T01:13:17.386Z,6.85
2018-03-31T01:15:44.335Z,6.70
2018-03-31T01:18:11.305Z,6.00
2018-03-31T01:20:38.441Z,9.80
2018-03-31T01:23:05.432Z,7.80
2018-03-31T01:25:33.844Z,6.68
2018-03-31T01:28:00.793Z,7.77
2018-03-31T01:30:27.854Z,6.00
2018-03-31T01:32:54.803Z,7.20
2018-03-31T01:35:26.071Z,4.85
2018-03-31T01:37:57.497Z,6.18
2018-03-31T01:40:24.479Z,5.20
2018-03-31T01:42:53.149Z,4.72
2018-03-31T01:45:20.894Z,4.80
2018-03-31T01:47:47.934Z,3.37
2018-03-31T01:50:19.389Z,3.60
2018-03-31T01:52:46.384Z,3.50
2018-03-31T01:55:13.354Z,3.30
2018-03-31T01:57:40.309Z,2.70
2018-03-31T02:00:07.305Z,5.25
2018-03-31T02:02:34.281Z,3.50
2018-03-31T02:05:01.230Z,4.57
2018-03-31T02:07:28.204Z,2.95
2018-03-31T02:09:56.258Z,4.45
2018-03-31T02:12:23.229Z,2.60
2018-03-31T02:14:50.183Z,3.95
2018-03-31T02:17:17.977Z,4.13
2018-03-31T02:19:44.956Z,3.90
2018-03-31T02:22:11.908Z,3.40
2018-03-31T02:24:39.010Z,3.70
2018-03-31T02:27:06.761Z,3.58
2018-03-31T02:29:34.485Z,3.93
2018-03-31T02:32:01.476Z,3.60
2018-03-31T02:34:28.428Z,3.77
2018-03-31T02:36:59.233Z,3.70
2018-03-31T02:39:28.617Z,3.47
2018-03-31T02:41:55.669Z,3.12
2018-03-31T02:44:23.093Z,3.85
2018-03-31T02:46:50.566Z,3.58
2018-03-31T02:49:17.549Z,3.75
2018-03-31T02:51:48.877Z,5.10
2018-03-31T02:54:15.873Z,5.50
2018-03-31T02:56:43.609Z,4.07
2018-03-31T02:59:10.582Z,3.77
2018-03-31T03:01:37.561Z,3.62
2018-03-31T03:04:04.521Z,4.00
2018-03-31T03:06:31.467Z,4.07
2018-03-31T03:08:58.436Z,4.87
2018-03-31T03:11:26.201Z,6.37
2018-03-31T03:13:53.140Z,5.60
2018-03-31T03:16:20.866Z,5.40
2018-03-31T03:18:47.840Z,6.37
2018-03-31T03:21:14.809Z,6.60
2018-03-31T03:23:42.716Z,5.28
2018-03-31T03:26:09.733Z,6.75
2018-03-31T03:28:37.453Z,5.93
2018-03-31T03:31:04.795Z,6.82
2018-03-31T03:33:31.973Z,6.60
2018-03-31T03:36:00.453Z,7.03
2018-03-31T03:38:28.597Z,7.93
2018-03-31T03:40:55.564Z,7.97
2018-03-31T03:43:22.552Z,7.40
2018-03-31T03:45:50.277Z,8.50
2018-03-31T03:48:17.255Z,8.67
2018-03-31T03:50:44.205Z,8.10
2018-03-31T03:53:15.325Z,8.27
2018-03-31T03:55:43.778Z,7.47
2018-03-31T03:58:11.698Z,9.30
2018-03-31T04:00:38.663Z,9.10
2018-03-31T04:03:06.125Z,9.67
2018-03-31T04:05:33.080Z,10.20
2018-03-31T04:08:04.037Z,9.50
2018-03-31T04:10:31.035Z,9.27
2018-03-31T04:12:58.303Z,9.67
2018-03-31T04:15:25.511Z,8.43
2018-03-31T04:17:52.913Z,9.43
2018-03-31T04:20:20.841Z,9.93
2018-03-31T04:22:47.798Z,10.18
2018-03-31T04:25:14.750Z,10.63
2018-03-31T04:27:41.724Z,11.60
2018-03-31T04:30:09.258Z,11.68
2018-03-31T04:32:36.240Z,11.85
2018-03-31T04:35:03.451Z,10.60
2018-03-31T04:37:39.065Z,12.40
2018-03-31T04:40:06.040Z,10.30
2018-03-31T04:42:34.729Z,11.40
2018-03-31T04:45:02.474Z,10.23
2018-03-31T04:47:29.445Z,12.20
2018-03-31T04:49:56.409Z,11.67
2018-03-31T04:52:23.405Z,12.50
2018-03-31T04:54:50.360Z,11.80
2018-03-31T04:57:18.205Z,10.93
2018-03-31T04:59:45.153Z,11.07
2018-03-31T05:02:12.140Z,12.10
2018-03-31T05:04:39.118Z,9.20
2018-03-31T05:07:06.542Z,13.57
2018-03-31T05:09:33.504Z,11.67
2018-03-31T05:12:01.749Z,12.20
2018-03-31T05:14:29.470Z,11.27
2018-03-31T05:16:56.465Z,11.65
2018-03-31T05:19:23.484Z,12.57
2018-03-31T05:21:50.445Z,13.00
2018-03-31T05:24:17.438Z,11.88
2018-03-31T05:26:45.217Z,11.85
2018-03-31T05:29:12.196Z,12.57
2018-03-31T05:31:39.169Z,13.18
2018-03-31T05:34:06.206Z,12.60
2018-03-31T05:36:33.448Z,11.52
2018-03-31T05:39:04.937Z,13.07
2018-03-31T05:41:31.942Z,11.83
2018-03-31T05:43:59.662Z,11.60
2018-03-31T05:46:26.630Z,10.60
2018-03-31T05:48:53.954Z,9.73
2018-03-31T05:51:20.917Z,13.00
2018-03-31T05:53:47.891Z,11.80
2018-03-31T05:56:14.875Z,14.10
2018-03-31T05:58:41.825Z,12.20
2018-03-31T06:01:08.913Z,11.87
2018-03-31T06:03:35.935Z,11.63
2018-03-31T06:06:02.885Z,13.43
2018-03-31T06:08:30.551Z,12.55
2018-03-31T06:10:57.678Z,11.00
2018-03-31T06:13:24.869Z,7.70
2018-03-31T06:15:52.188Z,12.57
2018-03-31T06:18:19.406Z,11.63
2018-03-31T06:20:47.158Z,12.10
2018-03-31T06:23:16.089Z,10.97
2018-03-31T06:25:43.069Z,11.70
2018-03-31T06:28:10.054Z,11.63
2018-03-31T06:30:37.017Z,11.93
2018-03-31T06:33:04.749Z,12.57
2018-03-31T06:35:33.430Z,11.93
2018-03-31T06:38:00.462Z,12.18
2018-03-31T06:40:31.908Z,12.43
2018-03-31T06:42:58.913Z,11.43
2018-03-31T06:45:26.374Z,11.20
2018-03-31T06:47:53.375Z,11.90
2018-03-31T06:50:20.329Z,11.67
2018-03-31T06:52:48.120Z,10.00
2018-03-31T06:55:18.881Z,11.20
2018-03-31T06:57:45.861Z,10.80
2018-03-31T07:00:12.820Z,12.40
2018-03-31T07:02:39.818Z,10.93
2018-03-31T07:05:06.813Z,10.23
2018-03-31T07:07:33.782Z,11.47
2018-03-31T07:10:04.350Z,9.26
2018-03-31T07:12:31.297Z,10.43
2018-03-31T07:14:58.268Z,9.53
2018-03-31T07:17:25.481Z,11.18
2018-03-31T07:19:52.456Z,11.57
2018-03-31T07:22:20.671Z,11.67
2018-03-31T07:24:47.734Z,10.20
2018-03-31T07:27:14.735Z,9.80
2018-03-31T07:29:42.460Z,10.40
2018-03-31T07:32:09.448Z,10.40
2018-03-31T07:34:36.396Z,9.85
2018-03-31T07:37:03.386Z,10.13
2018-03-31T07:39:30.573Z,8.97
2018-03-31T07:42:01.595Z,9.90
2018-03-31T07:44:28.558Z,9.20
2018-03-31T07:46:55.537Z,10.90
2018-03-31T07:49:22.856Z,12.55
2018-03-31T07:51:49.819Z,10.00
2018-03-31T07:54:17.374Z,9.98
2018-03-31T07:56:48.925Z,9.65
2018-03-31T07:59:15.881Z,11.20
2018-03-31T08:01:43.625Z,9.93
2018-03-31T08:04:10.634Z,9.30
2018-03-31T08:06:37.821Z,8.37
2018-03-31T08:09:04.824Z,8.47
2018-03-31T08:11:42.253Z,9.63
2018-03-31T08:14:09.285Z,8.90
2018-03-31T08:16:37.208Z,9.80
2018-03-31T08:19:04.189Z,9.50
2018-03-31T08:21:32.498Z,7.10
2018-03-31T08:23:59.453Z,8.83
2018-03-31T08:26:30.994Z,9.63
2018-03-31T08:28:58.006Z,9.53
2018-03-31T08:31:25.002Z,10.37
2018-03-31T08:33:51.954Z,7.40
2018-03-31T08:36:19.705Z,7.90
2018-03-31T08:38:46.681Z,8.47
2018-03-31T08:41:13.672Z,8.05
2018-03-31T08:43:41.001Z,6.23
2018-03-31T08:46:08.049Z,8.60
2018-03-31T08:48:35.009Z,8.47
2018-03-31T08:51:01.988Z,8.53
2018-03-31T08:53:28.940Z,6.70
2018-03-31T08:55:55.896Z,8.27
2018-03-31T08:58:24.092Z,6.18
2018-03-31T09:00:51.136Z,6.67
2018-03-31T09:03:18.111Z,4.80
2018-03-31T09:05:45.060Z,5.78
2018-03-31T09:08:12.087Z,6.90
2018-03-31T09:10:39.055Z,7.10
2018-03-31T09:13:10.829Z,6.78
2018-03-31T09:15:37.793Z,8.60
2018-03-31T09:18:04.770Z,5.67
2018-03-31T09:20:31.728Z,6.90
2018-03-31T09:22:58.718Z,5.17
2018-03-31T09:25:26.023Z,6.25
2018-03-31T09:27:52.976Z,7.05
2018-03-31T09:30:21.290Z,7.82
2018-03-31T09:32:48.645Z,7.70
2018-03-31T09:35:15.626Z,6.70
2018-03-31T09:37:43.385Z,6.80
2018-03-31T09:40:11.113Z,5.50
2018-03-31T09:42:38.074Z,6.60
2018-03-31T09:45:05.057Z,7.53
2018-03-31T09:47:32.039Z,8.23
2018-03-31T09:49:58.989Z,6.77
2018-03-31T09:52:26.141Z,6.40
2018-03-31T09:54:53.104Z,7.00
2018-03-31T09:57:20.082Z,5.83
2018-03-31T09:59:47.461Z,7.32
2018-03-31T10:02:14.708Z,7.32
2018-03-31T10:04:41.933Z,6.90
2018-03-31T10:07:08.926Z,4.93
2018-03-31T10:09:36.330Z,6.87
2018-03-31T10:12:04.060Z,6.90
2018-03-31T10:14:31.041Z,4.10
2018-03-31T10:16:57.993Z,6.97
2018-03-31T10:19:25.646Z,5.50
2018-03-31T10:21:52.661Z,5.60
2018-03-31T10:24:19.768Z,9.27
2018-03-31T10:26:46.998Z,6.35
2018-03-31T10:29:14.742Z,6.47
2018-03-31T10:31:41.778Z,6.47
2018-03-31T10:34:08.808Z,6.40
2018-03-31T10:36:35.790Z,6.27
2018-03-31T10:39:02.777Z,5.80
2018-03-31T10:41:29.765Z,5.87
2018-03-31T10:43:57.248Z,6.60
2018-03-31T10:46:24.204Z,6.22
2018-03-31T10:48:52.604Z,5.58
2018-03-31T10:51:19.599Z,5.87
2018-03-31T10:53:46.556Z,6.27
2018-03-31T10:56:14.283Z,5.10
2018-03-31T10:58:45.649Z,3.95
2018-03-31T11:01:12.600Z,4.70
2018-03-31T11:03:39.802Z,5.00
2018-03-31T11:06:06.852Z,5.22
2018-03-31T11:08:33.834Z,6.00
2018-03-31T11:11:01.783Z,5.00
2018-03-31T11:13:28.737Z,5.55
2018-03-31T11:15:55.857Z,4.40
2018-03-31T11:18:22.804Z,5.65
2018-03-31T11:20:49.800Z,5.10
2018-03-31T11:23:16.974Z,4.90
2018-03-31T11:25:44.713Z,4.60
2018-03-31T11:28:11.685Z,4.95
2018-03-31T11:30:38.657Z,4.83
2018-03-31T11:33:05.618Z,4.50
2018-03-31T11:35:33.629Z,4.40
2018-03-31T11:38:01.357Z,4.70
2018-03-31T11:40:28.322Z,4.80
2018-03-31T11:42:55.290Z,5.23
2018-03-31T11:45:22.244Z,4.27
2018-03-31T11:47:49.229Z,4.83
2018-03-31T11:50:16.217Z,4.60
2018-03-31T11:52:43.182Z,4.70
2018-03-31T11:55:10.633Z,4.10
2018-03-31T11:57:38.385Z,4.22
2018-03-31T12:00:05.359Z,3.90
2018-03-31T12:02:32.333Z,3.92
2018-03-31T12:04:59.505Z,4.60
2018-03-31T12:07:26.490Z,3.65
2018-03-31T12:09:54.095Z,4.78
2018-03-31T12:12:21.055Z,4.70
2018-03-31T12:14:48.680Z,3.97
2018-03-31T12:17:15.720Z,4.60
2018-03-31T12:19:42.881Z,4.25
2018-03-31T12:22:09.964Z,4.57
2018-03-31T12:24:37.306Z,3.78
2018-03-31T12:27:04.319Z,4.20
2018-03-31T12:29:31.285Z,5.00
2018-03-31T12:31:58.286Z,4.27
2018-03-31T12:34:25.848Z,4.10
2018-03-31T12:36:53.571Z,3.80
2018-03-31T12:39:20.630Z,3.90
2018-03-31T12:41:47.585Z,3.80
2018-03-31T12:44:14.803Z,3.60
2018-03-31T12:46:41.826Z,3.78
2018-03-31T12:49:09.190Z,4.80
2018-03-31T12:51:36.145Z,4.70
2018-03-31T12:54:03.722Z,5.93
2018-03-31T12:56:30.841Z,6.90
2018-03-31T12:58:58.364Z,6.43
2018-03-31T13:01:25.335Z,7.23
2018-03-31T13:03:53.056Z,7.15
2018-03-31T13:06:20.021Z,6.30
2018-03-31T13:08:48.057Z,6.87
2018-03-31T13:11:15.071Z,5.60
2018-03-31T13:13:42.038Z,7.30
2018-03-31T13:16:12.474Z,13.20
2018-03-31T13:18:39.453Z,5.50
2018-03-31T13:21:06.845Z,6.68
2018-03-31T13:23:33.832Z,4.85
2018-03-31T13:26:01.305Z,4.72
2018-03-31T13:28:28.267Z,6.35
2018-03-31T13:30:55.758Z,3.83
2018-03-31T13:33:22.710Z,4.47
2018-03-31T13:35:51.033Z,4.22
2018-03-31T13:38:18.068Z,3.70
2018-03-31T13:40:45.046Z,4.50
2018-03-31T13:43:12.039Z,4.90
2018-03-31T13:45:39.217Z,4.32
2018-03-31T13:48:10.018Z,5.20
2018-03-31T13:50:36.992Z,5.53
2018-03-31T13:53:03.937Z,5.83
2018-03-31T13:55:30.896Z,5.50
2018-03-31T13:57:58.189Z,7.43
2018-03-31T14:00:25.185Z,5.50
2018-03-31T14:02:56.557Z,6.43
2018-03-31T14:05:23.526Z,6.63
2018-03-31T14:07:50.509Z,4.70
2018-03-31T14:10:18.529Z,4.07
2018-03-31T14:12:45.509Z,5.00
2018-03-31T14:15:12.493Z,5.37
2018-03-31T14:17:40.213Z,3.80
2018-03-31T14:20:07.185Z,2.67
2018-03-31T14:22:34.132Z,4.05
2018-03-31T14:25:01.953Z,2.33
2018-03-31T14:27:28.900Z,3.13
2018-03-31T14:29:55.940Z,3.80
2018-03-31T14:32:27.332Z,4.07
2018-03-31T14:34:54.312Z,4.18
2018-03-31T14:37:22.040Z,3.15
2018-03-31T14:39:48.992Z,3.90
2018-03-31T14:42:16.037Z,3.23
2018-03-31T14:44:43.026Z,3.47
2018-03-31T14:47:09.975Z,3.07
2018-03-31T14:49:36.942Z,2.87
2018-03-31T14:52:03.926Z,2.63
2018-03-31T14:54:30.925Z,2.40
2018-03-31T14:56:58.362Z,2.92
2018-03-31T14:59:26.087Z,2.10
2018-03-31T15:01:53.085Z,2.50
2018-03-31T15:04:20.062Z,3.90
2018-03-31T15:06:48.141Z,4.03
2018-03-31T15:09:15.106Z,3.73
2018-03-31T15:11:42.865Z,4.23
2018-03-31T15:14:09.847Z,3.33
2018-03-31T15:16:37.116Z,3.07
2018-03-31T15:19:04.393Z,4.50
2018-03-31T15:21:31.353Z,4.40
2018-03-31T15:23:58.330Z,4.80
2018-03-31T15:26:26.241Z,5.77
2018-03-31T15:28:53.226Z,5.97
2018-03-31T15:31:20.177Z,3.83
2018-03-31T15:33:50.977Z,5.80
2018-03-31T15:36:17.938Z,4.28
2018-03-31T15:38:44.914Z,5.50
2018-03-31T15:41:11.883Z,4.87
2018-03-31T15:43:39.088Z,4.90
2018-03-31T15:46:06.828Z,5.57
2018-03-31T15:48:34.323Z,5.27
2018-03-31T15:51:02.096Z,4.77
2018-03-31T15:53:29.809Z,5.47
2018-03-31T15:55:56.777Z,5.30
2018-03-31T15:58:23.821Z,4.57
2018-03-31T16:00:50.791Z,5.60
2018-03-31T16:03:18.008Z,6.00
2018-03-31T16:05:45.176Z,5.03
2018-03-31T16:08:12.173Z,5.30
2018-03-31T16:10:39.138Z,5.10
2018-03-31T16:13:06.134Z,3.87
2018-03-31T16:15:33.876Z,4.30
2018-03-31T16:18:00.827Z,2.77
2018-03-31T16:20:27.817Z,4.50
2018-03-31T16:22:54.926Z,2.95
2018-03-31T16:25:21.913Z,4.17
2018-03-31T16:27:49.533Z,5.20
2018-03-31T16:30:16.658Z,4.47
2018-03-31T16:32:44.011Z,4.78
2018-03-31T16:35:11.277Z,4.12
2018-03-31T16:37:39.436Z,4.75
2018-03-31T16:40:06.414Z,4.93
2018-03-31T16:42:33.504Z,3.80
2018-03-31T16:45:00.494Z,4.90
2018-03-31T16:47:27.480Z,4.62
2018-03-31T16:49:57.565Z,4.85
2018-03-31T16:52:24.507Z,6.40
2018-03-31T16:54:52.677Z,6.47
2018-03-31T16:57:19.625Z,5.33
2018-03-31T16:59:46.606Z,5.57
2018-03-31T17:02:13.558Z,5.60
2018-03-31T17:04:40.901Z,6.52
2018-03-31T17:07:07.862Z,6.60
2018-03-31T17:09:36.074Z,5.45
2018-03-31T17:12:03.052Z,6.93
2018-03-31T17:14:30.080Z,5.90
2018-03-31T17:16:57.023Z,6.83
2018-03-31T17:19:24.201Z,6.10
2018-03-31T17:21:51.206Z,6.20
2018-03-31T17:24:18.694Z,6.55
2018-03-31T17:26:46.417Z,6.32
2018-03-31T17:29:13.462Z,8.38
2018-03-31T17:31:40.421Z,6.90
2018-03-31T17:34:07.732Z,7.60
2018-03-31T17:36:39.240Z,8.30
2018-03-31T17:39:06.211Z,7.95
2018-03-31T17:41:33.951Z,8.00
2018-03-31T17:44:00.959Z,9.00
2018-03-31T17:46:27.948Z,9.33
2018-03-31T17:48:54.923Z,7.90
2018-03-31T17:51:21.877Z,10.00
2018-03-31T17:53:48.961Z,9.40
2018-03-31T17:56:17.115Z,9.94
2018-03-31T17:58:44.098Z,9.23
2018-03-31T18:01:11.055Z,7.90
2018-03-31T18:03:38.040Z,9.97
2018-03-31T18:06:06.186Z,8.30
2018-03-31T18:08:33.154Z,12.37
2018-03-31T18:11:00.101Z,10.27
2018-03-31T18:13:27.067Z,13.25
2018-03-31T18:15:54.538Z,11.90
2018-03-31T18:18:21.500Z,9.67
2018-03-31T18:20:49.753Z,10.15
2018-03-31T18:23:16.734Z,10.00
2018-03-31T18:25:44.665Z,10.77
2018-03-31T18:28:11.653Z,11.97
2018-03-31T18:30:39.377Z,11.83
2018-03-31T18:33:06.356Z,11.50
2018-03-31T18:35:33.346Z,13.45
2018-03-31T18:38:00.301Z,14.45
2018-03-31T18:40:28.055Z,13.18
2018-03-31T18:42:55.034Z,10.30
2018-03-31T18:45:22.017Z,11.15
2018-03-31T18:47:48.981Z,13.10
2018-03-31T18:50:15.937Z,11.83
2018-03-31T18:52:47.014Z,12.65
2018-03-31T18:55:14.174Z,11.80
2018-03-31T18:57:41.121Z,12.03
2018-03-31T19:00:08.081Z,11.83
2018-03-31T19:02:35.061Z,14.13
2018-03-31T19:05:02.023Z,13.27
2018-03-31T19:07:29.463Z,13.45
2018-03-31T19:09:56.416Z,11.70
2018-03-31T19:12:23.868Z,11.23
2018-03-31T19:14:50.820Z,10.00
2018-03-31T19:17:18.346Z,11.95
2018-03-31T19:19:46.109Z,10.83
2018-03-31T19:22:13.128Z,13.33
2018-03-31T19:24:45.780Z,12.07
2018-03-31T19:29:47.286Z,11.80
2018-03-31T19:32:15.009Z,12.33
2018-03-31T19:34:41.977Z,12.93
2018-03-31T19:37:08.956Z,14.10
2018-03-31T19:39:41.686Z,11.50
2018-03-31T19:42:08.904Z,13.20
2018-03-31T19:44:35.886Z,12.55
2018-03-31T19:47:04.078Z,12.60
2018-03-31T19:49:31.048Z,11.32
2018-03-31T19:51:58.025Z,12.67
2018-03-31T19:54:28.834Z,13.00
2018-03-31T19:56:55.809Z,14.60
2018-03-31T19:59:22.768Z,13.87
2018-03-31T20:01:49.764Z,12.32
2018-03-31T20:04:17.536Z,12.82
2018-03-31T20:06:45.257Z,12.40
2018-03-31T20:09:12.241Z,12.45
2018-03-31T20:11:39.217Z,10.77
2018-03-31T20:14:06.311Z,12.10
2018-03-31T20:16:33.261Z,11.90
2018-03-31T20:19:01.022Z,11.90
2018-03-31T20:21:28.046Z,12.20
2018-03-31T20:23:55.073Z,11.50
2018-03-31T20:26:22.059Z,11.18
2018-03-31T20:28:49.901Z,11.48
2018-03-31T20:31:16.898Z,11.63
2018-03-31T20:33:43.852Z,12.17
2018-03-31T20:36:10.959Z,13.23
2018-03-31T20:38:38.174Z,10.40
2018-03-31T20:41:05.129Z,11.80
2018-03-31T20:43:32.612Z,12.60
2018-03-31T20:45:59.587Z,12.17
2018-03-31T20:48:27.040Z,14.57
2018-03-31T20:50:53.997Z,12.33
2018-03-31T20:53:21.514Z,11.35
2018-03-31T20:55:48.473Z,13.43
2018-03-31T20:58:16.129Z,12.98
2018-03-31T21:00:43.082Z,13.00
2018-03-31T21:03:11.329Z,13.02
2018-03-31T21:05:38.337Z,11.27
2018-03-31T21:08:05.294Z,11.93
2018-03-31T21:10:35.824Z,11.80
2018-03-31T21:13:02.815Z,11.70
2018-03-31T21:15:29.994Z,11.27
2018-03-31T21:17:56.979Z,10.80
2018-03-31T21:20:24.116Z,12.43
2018-03-31T21:22:51.084Z,12.23
2018-03-31T21:25:22.537Z,12.02
2018-03-31T21:27:49.498Z,11.90
2018-03-31T21:30:16.473Z,11.23
2018-03-31T21:32:43.481Z,12.90
2018-03-31T21:35:10.487Z,12.48
2018-03-31T21:37:38.277Z,12.00
2018-03-31T21:40:05.229Z,12.63
2018-03-31T21:42:32.545Z,11.50
2018-03-31T21:44:59.736Z,11.70
2018-03-31T21:47:27.206Z,12.78
2018-03-31T21:49:54.161Z,12.93
2018-03-31T21:52:22.217Z,11.23
2018-03-31T21:54:52.668Z,12.73
2018-03-31T21:57:19.617Z,12.43
2018-03-31T21:59:46.630Z,12.52
2018-03-31T22:02:13.786Z,12.70
2018-03-31T22:04:40.813Z,12.70
2018-03-31T22:07:08.130Z,11.63
2018-03-31T22:09:35.032Z,13.03
2018-03-31T22:12:02.038Z,13.27
2018-03-31T22:14:35.110Z,12.90
2018-03-31T22:17:02.081Z,12.57
2018-03-31T22:19:29.990Z,11.70
2018-03-31T22:21:57.136Z,11.93
2018-03-31T22:24:24.316Z,12.95
2018-03-31T22:26:51.298Z,13.20
2018-03-31T22:29:18.877Z,13.80
2018-03-31T22:31:46.034Z,13.60
2018-03-31T22:34:13.329Z,12.30
2018-03-31T22:36:41.070Z,12.57
2018-03-31T22:39:08.080Z,12.37
2018-03-31T22:41:35.016Z,12.00
2018-03-31T22:44:03.113Z,11.73
2018-03-31T22:46:30.069Z,12.35
2018-03-31T22:48:57.040Z,11.67
2018-03-31T22:51:24.160Z,12.10
2018-03-31T22:53:52.572Z,13.10
2018-03-31T22:56:19.526Z,12.23
2018-03-31T22:58:46.537Z,13.33
2018-03-31T23:01:13.488Z,10.93
2018-03-31T23:03:40.446Z,13.13
2018-03-31T23:06:07.425Z,11.60
2018-03-31T23:08:34.581Z,13.05
2018-03-31T23:11:05.341Z,12.20
2018-03-31T23:13:32.300Z,11.60
2018-03-31T23:16:00.384Z,12.93
2018-03-31T23:18:28.129Z,14.15
2018-03-31T23:20:55.147Z,14.40
2018-03-31T23:23:22.097Z,13.80
2018-03-31T23:25:49.056Z,12.15
2018-03-31T23:28:16.034Z,11.20
2018-03-31T23:30:43.012Z,14.17
2018-03-31T23:33:10.044Z,12.80
2018-03-31T23:35:37.033Z,12.75
2018-03-31T23:38:03.993Z,12.73
2018-03-31T23:40:31.465Z,12.45
2018-03-31T23:43:01.668Z,12.43
2018-03-31T23:45:28.653Z,12.07
2018-03-31T23:47:57.315Z,15.10
2018-03-31T23:50:24.277Z,15.13
2018-03-31T23:52:51.233Z,11.73
2018-03-31T23:55:18.228Z,13.40
2018-03-31T23:57:45.521Z,14.38
